Smithshire, Illinois
Current Conditions -  °F | °C
As of 8:19 PM on Saturday 20 Dec 2014 (Local Time) from KBRL Reporting Station
Haze Haze  
Wind Chill: 31°   Ceiling: 1600
Heat Index: 36°   Visibility: 5mi
Dew Point: 34°   Wind: 6mph
Humidity: 93%   Direction: 160°SSE
Pressure: 30.19"   Gusts: NA
Location:  40.79°N, 90.78°W
Report Text: KBRL 210219Z AUTO 16005KT 5SM BR SCT008 OVC016 02/01 A3019 RMK AO2 T00220011
Loading
Personal Weather Stations






























Interactive Weather Map New forecast layout! Learn more

10-Day Weather Forecast

Advertisements
Track Severe Weather on mobile